Time;durP1;ratioP1;P1;durP2;ratioP2;P2;SDS_P1;SDS_P2;PMS_P1;PMS_P2;Temp;Humidity;BMP_temperature;BMP_pressure;BME280_temperature;BME280_humidity;BME280_pressure;Samples;Min_cycle;Max_cycle;Signal;HPM_P1;HPM_P2
2022/01/28 00:05:18;;;;;;;6.10;5.50;;;;;;;0.91;100.00;97665.97;4947866;28;21119;-60
2022/01/28 00:07:47;;;;;;;6.30;5.80;;;;;;;0.84;100.00;97672.56;4952291;28;20606;-59
2022/01/28 00:10:15;;;;;;;6.73;6.07;;;;;;;0.85;100.00;97672.44;4958212;28;20293;-60
2022/01/28 00:15:31;;;;;;;5.90;5.40;;;;;;;0.84;100.00;97678.59;4972018;28;21011;-61
2022/01/28 00:18:30;;;;;;;5.73;5.33;;;;;;;0.90;100.00;97693.00;4959891;28;20304;-56
2022/01/28 00:38:04;;;;;;;5.60;5.10;;;;;;;0.97;100.00;97719.50;4939175;28;20880;-60
2022/01/28 00:40:33;;;;;;;5.70;5.30;;;;;;;0.86;100.00;97723.69;4953741;28;20968;-58
2022/01/28 00:43:02;;;;;;;5.03;4.63;;;;;;;0.89;100.00;97706.13;4999569;28;20244;-58
2022/01/28 00:45:30;;;;;;;5.00;4.60;;;;;;;0.94;100.00;97714.47;4997998;28;20319;-58
2022/01/28 00:47:59;;;;;;;5.53;5.13;;;;;;;0.88;100.00;97712.31;5000460;28;20312;-59
2022/01/28 00:50:27;;;;;;;5.73;5.10;;;;;;;0.82;100.00;97713.59;5000276;28;20344;-58
2022/01/28 00:52:56;;;;;;;5.10;4.70;;;;;;;0.81;100.00;97719.75;5001142;28;20301;-62
2022/01/28 00:55:25;;;;;;;5.30;4.57;;;;;;;0.78;100.00;97727.81;5001207;28;20323;-59
2022/01/28 00:57:53;;;;;;;4.87;4.47;;;;;;;0.84;100.00;97735.19;5000259;28;20335;-58
2022/01/28 01:00:21;;;;;;;5.63;5.00;;;;;;;0.81;100.00;97731.00;4999343;28;20793;-60
2022/01/28 01:02:49;;;;;;;6.40;4.80;;;;;;;0.90;100.00;97739.13;4998237;28;20240;-56
2022/01/28 01:05:18;;;;;;;5.53;5.03;;;;;;;0.85;100.00;97735.06;5000584;28;20236;-59
2022/01/28 01:07:46;;;;;;;4.70;4.30;;;;;;;0.95;100.00;97750.09;4999731;28;20290;-59
2022/01/28 01:10:16;;;;;;;4.87;4.53;;;;;;;0.84;100.00;97751.66;5000711;28;20236;-61
2022/01/28 01:12:46;;;;;;;4.53;4.13;;;;;;;0.88;100.00;97756.66;5000129;28;20632;-59
2022/01/28 01:15:19;;;;;;;4.40;4.10;;;;;;;0.92;100.00;97752.88;4990482;28;20292;-60
2022/01/28 01:17:56;;;;;;;4.33;4.03;;;;;;;0.92;100.00;97761.56;4997655;28;20280;-61
2022/01/28 01:20:51;;;;;;;5.47;4.70;;;;;;;1.03;100.00;97773.84;5000540;28;20297;-59
2022/01/28 01:23:25;;;;;;;4.60;4.20;;;;;;;0.97;100.00;97771.69;4998357;28;20232;-59
2022/01/28 01:25:59;;;;;;;7.00;5.30;;;;;;;1.03;100.00;97773.00;4995508;28;20931;-60
2022/01/28 01:28:31;;;;;;;5.27;4.87;;;;;;;0.96;100.00;97772.63;4997037;28;20226;-60
2022/01/28 01:31:01;;;;;;;4.27;3.97;;;;;;;1.00;100.00;97779.28;4997030;28;20312;-59
2022/01/28 01:33:33;;;;;;;5.47;5.07;;;;;;;0.95;100.00;97770.97;4999984;28;20570;-57
2022/01/28 01:36:01;;;;;;;5.00;4.10;;;;;;;0.97;100.00;97758.63;5018021;28;20204;-57
2022/01/28 01:38:33;;;;;;;5.47;5.07;;;;;;;1.06;100.00;97765.81;5018273;28;20330;-59
2022/01/28 01:41:06;;;;;;;4.70;4.30;;;;;;;0.99;100.00;97772.41;5018009;28;20373;-58
2022/01/28 01:43:45;;;;;;;5.97;5.03;;;;;;;1.02;100.00;97769.56;5019483;28;20208;-59
2022/01/28 01:46:23;;;;;;;5.23;4.77;;;;;;;0.91;100.00;97764.25;5016248;28;20224;-57
2022/01/28 01:54:24;;;;;;;5.03;4.60;;;;;;;1.09;100.00;97768.19;5018160;28;20295;-59
2022/01/28 01:56:54;;;;;;;5.83;5.33;;;;;;;1.01;100.00;97783.56;5017777;28;20282;-57
2022/01/28 01:59:22;;;;;;;4.97;4.57;;;;;;;1.09;100.00;97778.63;5018260;28;20232;-58
2022/01/28 02:01:51;;;;;;;4.83;4.53;;;;;;;1.01;100.00;97780.97;5018091;28;20232;-57
2022/01/28 02:04:19;;;;;;;6.17;4.83;;;;;;;1.06;100.00;97780.63;5019056;28;20235;-60
2022/01/28 02:06:48;;;;;;;5.07;4.73;;;;;;;1.11;100.00;97779.34;5016402;28;20840;-58
2022/01/28 02:09:16;;;;;;;4.73;4.43;;;;;;;1.14;100.00;97786.97;5011077;28;20244;-57
2022/01/28 02:11:44;;;;;;;5.63;5.00;;;;;;;1.11;100.00;97796.78;5016743;28;20236;-60
2022/01/28 02:14:14;;;;;;;4.37;4.07;;;;;;;1.18;100.00;97789.34;5017522;28;20302;-60
2022/01/28 02:16:42;;;;;;;4.30;4.00;;;;;;;1.14;100.00;97791.38;5017904;28;20285;-56
2022/01/28 02:19:10;;;;;;;4.73;4.43;;;;;;;1.11;100.00;97791.56;5019654;28;20212;-56
2022/01/28 02:21:45;;;;;;;4.73;4.33;;;;;;;1.12;100.00;97794.06;5013595;28;20250;-60
2022/01/28 02:24:16;;;;;;;5.27;4.87;;;;;;;1.00;100.00;97801.00;5018593;28;20239;-55
2022/01/28 02:26:45;;;;;;;4.17;3.83;;;;;;;1.11;100.00;97799.38;5018785;28;20298;-57
2022/01/28 02:29:15;;;;;;;4.60;4.20;;;;;;;1.15;100.00;97796.47;5019804;28;20646;-56
2022/01/28 02:31:43;;;;;;;4.40;4.07;;;;;;;1.12;100.00;97801.06;5016763;28;20847;-58
2022/01/28 02:34:12;;;;;;;4.30;3.90;;;;;;;1.03;100.00;97802.56;5017589;28;20240;-57
2022/01/28 02:36:41;;;;;;;4.13;3.83;;;;;;;1.10;100.00;97798.56;5016022;28;20669;-57
2022/01/28 02:39:11;;;;;;;3.80;3.50;;;;;;;1.16;100.00;97792.09;5019043;28;20228;-57
2022/01/28 02:41:43;;;;;;;4.23;3.83;;;;;;;1.12;100.00;97795.84;5017114;28;20208;-53
2022/01/28 02:44:18;;;;;;;4.20;3.80;;;;;;;1.12;100.00;97811.50;5018313;28;20290;-54
2022/01/28 02:46:57;;;;;;;4.63;4.30;;;;;;;1.10;100.00;97805.56;5017063;28;20251;-58
2022/01/28 02:49:29;;;;;;;3.67;3.37;;;;;;;1.04;100.00;97814.66;5019145;28;20266;-57
2022/01/28 02:51:58;;;;;;;4.07;3.77;;;;;;;0.93;100.00;97820.63;5019773;28;20258;-59
2022/01/28 02:54:27;;;;;;;4.13;3.83;;;;;;;1.06;100.00;97810.19;5017737;28;20311;-58
2022/01/28 02:57:00;;;;;;;3.97;3.77;;;;;;;1.00;100.00;97815.84;5015018;28;20263;-57
2022/01/28 02:59:29;;;;;;;4.07;3.77;;;;;;;0.99;100.00;97824.59;5018111;28;20302;-56
2022/01/28 03:01:57;;;;;;;4.50;4.13;;;;;;;0.96;100.00;97827.44;5013008;28;20643;-54
2022/01/28 03:04:54;;;;;;;3.83;3.50;;;;;;;0.75;100.00;97829.72;5017225;28;20627;-58
2022/01/28 03:07:25;;;;;;;4.30;3.90;;;;;;;0.48;100.00;97831.53;5016400;28;20736;-55
2022/01/28 03:10:24;;;;;;;4.20;3.90;;;;;;;0.25;100.00;97836.53;5017557;28;20204;-58
2022/01/28 03:13:01;;;;;;;4.40;4.10;;;;;;;-0.02;100.00;97834.81;5015832;28;20236;-53
2022/01/28 03:15:31;;;;;;;4.27;3.70;;;;;;;-0.19;100.00;97845.50;5016534;28;20208;-55
2022/01/28 03:18:10;;;;;;;4.73;4.33;;;;;;;-0.39;100.00;97842.41;5015563;28;20945;-56
2022/01/28 03:20:42;;;;;;;4.50;4.20;;;;;;;-0.39;100.00;97839.81;5016451;28;20656;-55
2022/01/28 03:23:12;;;;;;;4.67;4.27;;;;;;;-0.49;100.00;97836.13;5017710;28;20576;-56
2022/01/28 03:25:43;;;;;;;5.10;4.60;;;;;;;-0.33;100.00;97846.41;5014372;28;20204;-56
2022/01/28 03:28:12;;;;;;;5.17;4.73;;;;;;;-0.31;100.00;97847.97;5014554;28;20536;-58
2022/01/28 03:30:41;;;;;;;4.93;4.57;;;;;;;-0.45;100.00;97846.25;5017020;28;20210;-56
2022/01/28 03:33:09;;;;;;;4.40;4.10;;;;;;;-0.47;100.00;97847.28;5001207;28;20314;-55
2022/01/28 03:35:37;;;;;;;4.53;4.20;;;;;;;-0.49;100.00;97852.56;5017850;28;20236;-57
2022/01/28 03:38:10;;;;;;;5.40;4.53;;;;;;;-0.54;100.00;97862.47;5010937;28;20234;-56
2022/01/28 03:40:42;;;;;;;4.20;3.90;;;;;;;-0.52;100.00;97859.78;5015288;28;20213;-54
2022/01/28 03:43:10;;;;;;;4.93;4.53;;;;;;;-0.68;100.00;97850.31;5016574;28;20208;-53
2022/01/28 03:45:38;;;;;;;4.67;4.27;;;;;;;-0.64;100.00;97850.97;5017631;28;20311;-55
2022/01/28 03:48:06;;;;;;;7.13;4.50;;;;;;;-0.61;100.00;97856.78;5016436;28;20498;-56
2022/01/28 03:50:34;;;;;;;5.47;5.07;;;;;;;-0.47;100.00;97852.50;5018452;28;20299;-58
2022/01/28 03:53:03;;;;;;;7.03;5.70;;;;;;;-0.45;100.00;97858.44;5017320;28;20210;-56
2022/01/28 03:55:31;;;;;;;5.70;5.20;;;;;;;-0.31;100.00;97867.97;5014994;28;20197;-56
2022/01/28 03:58:01;;;;;;;6.43;5.10;;;;;;;-0.31;100.00;97863.59;5016992;28;20882;-55
2022/01/28 04:00:32;;;;;;;6.23;5.13;;;;;;;-0.20;100.00;97862.91;5017455;28;20319;-57
2022/01/28 04:03:07;;;;;;;6.43;5.83;;;;;;;-0.15;100.00;97865.22;5016228;28;20389;-54
2022/01/28 04:13:55;;;;;;;6.37;5.77;;;;;;;0.01;100.00;97857.25;5013668;28;20975;-59
2022/01/28 04:16:32;;;;;;;5.73;4.97;;;;;;;-0.07;100.00;97862.09;5017185;28;20909;-56
2022/01/28 04:19:03;;;;;;;5.57;5.07;;;;;;;-0.15;100.00;97870.44;5015144;28;20207;-55
2022/01/28 04:21:31;;;;;;;5.50;4.87;;;;;;;-0.12;100.00;97862.41;5016807;28;20457;-58
2022/01/28 04:23:59;;;;;;;5.50;4.97;;;;;;;-0.01;100.00;97887.75;5017582;28;20685;-57
2022/01/28 04:26:27;;;;;;;8.17;4.93;;;;;;;0.08;100.00;97894.13;5014413;28;20538;-54
2022/01/28 04:28:56;;;;;;;5.87;4.73;;;;;;;0.14;100.00;97896.34;5016715;28;20235;-57
2022/01/28 04:31:24;;;;;;;5.47;4.40;;;;;;;0.18;100.00;97887.38;5015567;28;20740;-59
2022/01/28 04:33:54;;;;;;;6.17;4.53;;;;;;;0.11;100.00;97889.56;5018442;28;20231;-61
2022/01/28 04:36:26;;;;;;;4.80;4.40;;;;;;;0.08;100.00;97894.97;5021512;28;20202;-59
2022/01/28 04:39:00;;;;;;;5.33;4.83;;;;;;;0.19;100.00;97901.25;5021758;28;20201;-61
2022/01/28 04:41:35;;;;;;;5.40;4.57;;;;;;;0.23;100.00;97902.72;5016767;28;20295;-58
2022/01/28 04:44:12;;;;;;;4.73;4.27;;;;;;;0.24;100.00;97914.81;5018058;28;20208;-58
2022/01/28 04:46:46;;;;;;;4.97;4.47;;;;;;;0.23;100.00;97913.16;5014869;28;20201;-56
2022/01/28 04:49:23;;;;;;;4.73;4.23;;;;;;;0.32;100.00;97919.53;5016721;28;20224;-58
2022/01/28 04:52:12;;;;;;;5.50;4.10;;;;;;;0.36;100.00;97940.06;5014941;28;20232;-58
2022/01/28 04:54:57;;;;;;;5.07;4.50;;;;;;;0.34;100.00;97939.34;5015046;28;20237;-57
2022/01/28 04:57:34;;;;;;;4.23;3.93;;;;;;;0.34;100.00;97938.50;5018382;28;20232;-58
2022/01/28 05:00:14;;;;;;;4.60;4.20;;;;;;;0.39;100.00;97941.66;5019211;28;20214;-58
2022/01/28 05:03:00;;;;;;;6.47;4.23;;;;;;;0.36;100.00;97940.06;5020337;28;20778;-57
2022/01/28 05:06:08;;;;;;;4.70;4.30;;;;;;;0.40;100.00;97946.78;5020463;28;20462;-58
2022/01/28 05:09:08;;;;;;;5.27;4.30;;;;;;;0.37;100.00;97951.34;5014815;28;20856;-60
2022/01/28 05:14:47;;;;;;;6.70;4.07;;;;;;;0.43;100.00;97964.81;5018455;28;20204;-55
2022/01/28 05:26:01;;;;;;;4.07;3.43;;;;;;;0.25;100.00;97958.19;5017891;28;20206;-59
2022/01/28 05:28:29;;;;;;;3.87;3.57;;;;;;;0.30;100.00;97950.09;5017716;28;20238;-62
2022/01/28 05:30:58;;;;;;;6.97;3.43;;;;;;;0.42;100.00;97955.34;5019607;28;20660;-59
2022/01/28 05:33:27;;;;;;;3.57;3.27;;;;;;;0.50;100.00;97954.00;5019081;28;20219;-61
2022/01/28 05:35:55;;;;;;;6.63;4.07;;;;;;;0.48;100.00;97948.84;5017180;28;20211;-56
2022/01/28 05:38:23;;;;;;;4.40;4.07;;;;;;;0.42;100.00;97957.09;5017453;28;20224;-59
2022/01/28 05:40:51;;;;;;;5.67;4.23;;;;;;;0.38;100.00;97959.09;5018069;28;20208;-61
2022/01/28 05:43:19;;;;;;;3.87;3.67;;;;;;;0.30;100.00;97970.94;5019078;28;20212;-59
2022/01/28 05:45:47;;;;;;;4.73;3.60;;;;;;;0.25;100.00;97979.91;5019209;28;20212;-57
2022/01/28 05:48:16;;;;;;;3.93;3.63;;;;;;;0.13;100.00;97981.50;5011809;28;20274;-56
2022/01/28 05:50:45;;;;;;;4.73;3.57;;;;;;;0.24;100.00;97986.03;5012746;28;20205;-60
2022/01/28 05:53:13;;;;;;;7.10;4.07;;;;;;;0.36;100.00;97975.75;5008692;28;20268;-59
2022/01/28 05:55:41;;;;;;;4.93;4.07;;;;;;;0.37;100.00;97975.63;5008168;28;20242;-63
2022/01/28 05:58:09;;;;;;;4.60;3.73;;;;;;;0.41;100.00;97977.13;5015714;28;20243;-58
2022/01/28 06:00:37;;;;;;;5.37;3.70;;;;;;;0.47;100.00;97999.34;5007427;28;20664;-59
2022/01/28 06:03:11;;;;;;;3.93;3.53;;;;;;;0.39;100.00;97994.66;5016530;28;20286;-62
2022/01/28 06:05:39;;;;;;;5.00;4.23;;;;;;;0.33;100.00;98002.03;5019800;28;20208;-62
2022/01/28 06:08:08;;;;;;;4.10;3.77;;;;;;;0.36;100.00;97988.78;5015766;28;20228;-63
2022/01/28 06:10:36;;;;;;;4.47;4.17;;;;;;;0.34;100.00;98003.69;5019177;28;20763;-62
2022/01/28 06:13:05;;;;;;;5.00;4.60;;;;;;;0.42;100.00;97991.84;5013836;28;20884;-58
2022/01/28 06:15:33;;;;;;;4.93;4.47;;;;;;;0.37;100.00;98003.50;5013329;28;20208;-58
2022/01/28 06:18:01;;;;;;;4.53;4.13;;;;;;;0.43;100.00;98011.75;5019764;28;20232;-55
2022/01/28 06:20:29;;;;;;;5.57;5.07;;;;;;;0.42;100.00;98009.25;5019849;28;20211;-55
2022/01/28 06:22:57;;;;;;;5.33;4.83;;;;;;;0.43;100.00;98011.75;5007406;28;20342;-59
2022/01/28 06:25:26;;;;;;;5.43;4.93;;;;;;;0.43;100.00;98011.75;5015154;28;20213;-56
2022/01/28 06:27:54;;;;;;;6.17;5.60;;;;;;;0.45;100.00;98021.25;5010360;28;20445;-60
2022/01/28 06:30:23;;;;;;;4.43;3.90;;;;;;;0.48;100.00;98021.88;5008243;28;20816;-58
2022/01/28 06:32:51;;;;;;;5.10;4.60;;;;;;;0.50;100.00;98016.56;5006688;28;20661;-58
2022/01/28 06:35:19;;;;;;;4.07;3.67;;;;;;;0.48;100.00;98019.25;5010753;28;20240;-57
2022/01/28 06:37:47;;;;;;;6.43;4.77;;;;;;;0.56;100.00;98030.03;5014468;28;20233;-60
2022/01/28 06:40:16;;;;;;;7.63;4.40;;;;;;;0.54;100.00;98034.50;5012238;28;20211;-57
2022/01/28 06:42:46;;;;;;;4.50;4.17;;;;;;;0.49;100.00;98040.97;5010639;28;20369;-55
2022/01/28 06:45:14;;;;;;;4.50;3.50;;;;;;;0.40;100.00;98040.63;5011363;28;20209;-58
2022/01/28 06:47:42;;;;;;;4.23;3.83;;;;;;;0.37;100.00;98045.22;5005300;28;20224;-57
2022/01/28 06:50:11;;;;;;;6.67;4.17;;;;;;;0.38;100.00;98037.31;5009388;28;20574;-59
2022/01/28 06:52:41;;;;;;;4.57;4.23;;;;;;;0.35;100.00;98031.44;5008969;28;20212;-58
2022/01/28 06:55:10;;;;;;;4.77;4.40;;;;;;;0.43;100.00;98034.38;5014455;28;20209;-57
2022/01/28 06:57:38;;;;;;;4.00;3.70;;;;;;;0.44;100.00;98041.25;5004348;28;20224;-60
2022/01/28 07:00:09;;;;;;;4.50;4.13;;;;;;;0.45;100.00;98040.31;5012100;28;20223;-60
2022/01/28 07:02:37;;;;;;;4.67;4.20;;;;;;;0.52;100.00;98053.81;5012600;28;20482;-57
2022/01/28 07:05:07;;;;;;;5.83;4.20;;;;;;;0.49;100.00;98056.63;5017986;28;20775;-57
2022/01/28 07:07:36;;;;;;;4.50;3.83;;;;;;;0.54;100.00;98055.38;5017231;28;20219;-59
2022/01/28 07:10:04;;;;;;;4.03;3.77;;;;;;;0.51;100.00;98045.13;5017010;28;20331;-59
2022/01/28 07:12:32;;;;;;;3.83;2.67;;;;;;;0.54;100.00;98044.94;5015878;28;20727;-59
2022/01/28 07:15:00;;;;;;;3.63;3.20;;;;;;;0.59;100.00;98054.25;5012010;28;20208;-58
2022/01/28 07:17:30;;;;;;;5.03;3.23;;;;;;;0.60;100.00;98050.72;5016358;28;20234;-57
2022/01/28 07:19:58;;;;;;;3.20;3.00;;;;;;;0.57;100.00;98070.84;5021110;28;20197;-56
2022/01/28 07:22:28;;;;;;;3.17;2.97;;;;;;;0.65;100.00;98067.72;5017603;28;20582;-57
2022/01/28 07:24:56;;;;;;;3.30;3.10;;;;;;;0.68;100.00;98058.88;5008425;28;20208;-62
2022/01/28 07:27:24;;;;;;;3.03;2.77;;;;;;;0.66;100.00;98069.41;5010087;28;20430;-58
2022/01/28 07:29:52;;;;;;;3.93;2.77;;;;;;;0.64;100.00;98062.63;5016325;28;21397;-57
2022/01/28 07:32:22;;;;;;;3.77;2.73;;;;;;;0.59;100.00;98072.53;5016438;28;20204;-60
2022/01/28 07:34:52;;;;;;;3.17;2.97;;;;;;;0.61;100.00;98079.28;5006987;28;20476;-63
2022/01/28 07:37:20;;;;;;;3.27;3.03;;;;;;;0.72;100.00;98081.22;5012181;28;20310;-61
2022/01/28 07:39:49;;;;;;;2.63;2.43;;;;;;;0.71;100.00;98090.78;5007021;28;20209;-55
2022/01/28 07:42:18;;;;;;;3.90;2.97;;;;;;;0.70;100.00;98090.91;5010542;28;20211;-60
2022/01/28 07:44:46;;;;;;;3.73;2.97;;;;;;;0.80;100.00;98099.81;5010561;28;20204;-55
2022/01/28 07:47:14;;;;;;;3.63;3.33;;;;;;;0.80;100.00;98105.03;5017157;28;20331;-59
2022/01/28 07:49:42;;;;;;;3.40;3.00;;;;;;;0.92;100.00;98111.22;5017937;28;20224;-59
2022/01/28 07:52:11;;;;;;;3.73;3.43;;;;;;;1.00;100.00;98108.13;5013571;28;20247;-55
2022/01/28 07:54:47;;;;;;;3.40;3.10;;;;;;;1.04;100.00;98119.19;5016442;28;20235;-58
2022/01/28 07:57:16;;;;;;;3.17;2.87;;;;;;;1.10;100.00;98131.81;5017435;28;20232;-56
2022/01/28 07:59:44;;;;;;;3.60;3.30;;;;;;;1.01;100.00;98135.91;5015540;28;20211;-59
2022/01/28 08:02:12;;;;;;;3.40;3.10;;;;;;;1.01;100.00;98134.09;5012969;28;20566;-56
2022/01/28 08:04:40;;;;;;;3.93;3.20;;;;;;;1.04;100.00;98133.09;5009693;28;20227;-59
2022/01/28 08:07:08;;;;;;;4.57;3.10;;;;;;;1.03;100.00;98130.56;4999845;28;20233;-58
2022/01/28 08:09:38;;;;;;;4.30;3.57;;;;;;;1.00;100.00;98139.44;5004581;28;20229;-61
2022/01/28 08:12:07;;;;;;;3.00;2.80;;;;;;;0.93;100.00;98136.38;5010185;28;20204;-56
2022/01/28 08:14:35;;;;;;;4.03;2.50;;;;;;;1.05;100.00;98142.59;5004984;28;20359;-57
2022/01/28 08:17:03;;;;;;;2.97;2.80;;;;;;;0.98;100.00;98149.97;5016124;28;20258;-61
2022/01/28 08:19:31;;;;;;;3.00;2.80;;;;;;;1.02;100.00;98158.44;5015523;28;20556;-58
2022/01/28 08:21:59;;;;;;;4.23;2.80;;;;;;;0.98;100.00;98160.41;5009525;28;20312;-61
2022/01/28 08:24:27;;;;;;;3.43;3.13;;;;;;;0.93;100.00;98154.66;5010145;28;20206;-60
2022/01/28 08:26:56;;;;;;;3.43;2.73;;;;;;;1.09;100.00;98153.66;5006683;28;20224;-60
2022/01/28 08:29:24;;;;;;;2.90;2.80;;;;;;;1.13;100.00;98171.63;5011925;28;20689;-60
2022/01/28 08:31:52;;;;;;;2.70;2.50;;;;;;;1.21;100.00;98172.91;5004836;28;20937;-61
2022/01/28 08:34:21;;;;;;;3.00;2.80;;;;;;;1.33;100.00;98185.16;5011295;28;20328;-58
2022/01/28 08:36:49;;;;;;;3.30;3.10;;;;;;;1.23;100.00;98182.31;5009262;28;20216;-62
2022/01/28 08:39:17;;;;;;;5.97;2.47;;;;;;;1.32;100.00;98173.03;5005363;28;20999;-60
2022/01/28 08:41:45;;;;;;;2.53;2.37;;;;;;;1.33;100.00;98174.72;5019461;28;20908;-60
2022/01/28 08:44:17;;;;;;;4.00;2.47;;;;;;;1.36;100.00;98164.06;5020378;28;20545;-60
2022/01/28 08:46:46;;;;;;;2.73;2.53;;;;;;;1.42;100.00;98171.50;5019478;28;20211;-60
2022/01/28 08:49:14;;;;;;;2.67;2.47;;;;;;;1.40;100.00;98169.91;5010090;28;20207;-60
2022/01/28 08:51:42;;;;;;;2.27;2.07;;;;;;;1.37;100.00;98167.50;5011073;28;20229;-57
2022/01/28 08:54:10;;;;;;;5.63;3.30;;;;;;;1.28;100.00;98171.56;5017150;28;20330;-62
2022/01/28 08:56:38;;;;;;;5.00;3.03;;;;;;;1.36;100.00;98182.34;5014163;28;20200;-60
2022/01/28 08:59:27;;;;;;;2.50;2.30;;;;;;;1.26;100.00;98176.88;5008714;28;20208;-58
2022/01/28 09:01:55;;;;;;;2.83;2.60;;;;;;;1.25;100.00;98182.19;5006008;28;20232;-57
2022/01/28 09:04:23;;;;;;;2.83;2.63;;;;;;;1.24;100.00;98193.59;5003185;28;20580;-59
2022/01/28 09:06:51;;;;;;;3.83;3.33;;;;;;;1.10;100.00;98189.25;5012683;28;20220;-59
2022/01/28 09:09:20;;;;;;;3.00;2.80;;;;;;;1.15;100.00;98185.41;5009868;28;20796;-60
2022/01/28 09:11:54;;;;;;;2.77;2.57;;;;;;;1.07;100.00;98181.63;5018524;28;20712;-61
2022/01/28 09:14:23;;;;;;;2.47;2.27;;;;;;;1.30;100.00;98182.72;5012348;28;20209;-60
2022/01/28 09:16:53;;;;;;;2.97;2.57;;;;;;;1.39;100.00;98173.47;5018223;28;20232;-57
2022/01/28 09:19:21;;;;;;;2.77;2.27;;;;;;;1.46;100.00;98181.72;5005756;28;20196;-60
2022/01/28 09:21:49;;;;;;;3.13;2.90;;;;;;;1.64;100.00;98174.44;5010501;28;20661;-61
2022/01/28 09:24:17;;;;;;;6.23;3.60;;;;;;;1.63;100.00;98185.84;5001484;28;20205;-60
2022/01/28 09:26:45;;;;;;;2.67;2.13;;;;;;;1.44;100.00;98182.69;5013968;28;20196;-59
2022/01/28 09:29:13;;;;;;;3.00;2.50;;;;;;;1.55;100.00;98186.34;5012728;28;20204;-58
2022/01/28 09:31:41;;;;;;;3.20;2.40;;;;;;;1.50;100.00;98188.44;5006800;28;20224;-61
2022/01/28 09:34:12;;;;;;;2.13;2.03;;;;;;;1.43;100.00;98181.00;5019587;28;20270;-60
2022/01/28 09:36:40;;;;;;;2.40;2.23;;;;;;;1.59;100.00;98193.03;5010317;28;20215;-60
2022/01/28 09:39:08;;;;;;;2.60;2.40;;;;;;;1.56;100.00;98204.53;5019614;28;20213;-59
2022/01/28 09:41:37;;;;;;;4.93;3.00;;;;;;;1.53;100.00;98196.91;5018363;28;20192;-61
2022/01/28 09:44:08;;;;;;;2.77;2.10;;;;;;;1.58;100.00;98205.28;5019406;28;20580;-57
2022/01/28 09:46:38;;;;;;;3.33;2.30;;;;;;;1.62;100.00;98210.28;5017174;28;20235;-61
2022/01/28 09:49:06;;;;;;;3.83;2.27;;;;;;;1.57;100.00;98215.81;5003649;28;20204;-58
2022/01/28 09:51:36;;;;;;;4.70;2.40;;;;;;;1.58;100.00;98225.31;5005115;28;20236;-58
2022/01/28 09:54:04;;;;;;;5.23;3.17;;;;;;;1.79;100.00;98224.84;5012383;28;20587;-60
2022/01/28 09:56:32;;;;;;;3.07;2.00;;;;;;;2.01;100.00;98225.06;5009990;28;20703;-57
2022/01/28 09:59:00;;;;;;;4.10;2.47;;;;;;;1.97;100.00;98230.63;5009465;28;20208;-59
2022/01/28 10:01:29;;;;;;;2.07;1.97;;;;;;;1.95;100.00;98246.38;5007666;28;20196;-55
2022/01/28 10:04:03;;;;;;;3.40;3.03;;;;;;;2.01;100.00;98245.97;5009655;28;20231;-57
2022/01/28 10:06:31;;;;;;;4.17;2.40;;;;;;;1.81;100.00;98254.31;5012008;28;20807;-54
2022/01/28 10:09:07;;;;;;;4.67;1.80;;;;;;;1.67;100.00;98250.81;5016106;28;20680;-58
2022/01/28 10:11:36;;;;;;;3.27;2.07;;;;;;;1.64;100.00;98258.06;5017645;28;20224;-56
2022/01/28 10:14:09;;;;;;;3.33;2.07;;;;;;;1.71;100.00;98260.16;5011817;28;20218;-54
2022/01/28 10:16:37;;;;;;;2.70;2.50;;;;;;;1.75;100.00;98259.97;5006115;28;20581;-58
2022/01/28 10:19:06;;;;;;;2.10;2.00;;;;;;;1.88;100.00;98255.59;5013177;28;20503;-56
2022/01/28 10:21:36;;;;;;;5.27;3.13;;;;;;;1.92;100.00;98264.06;5018939;28;20611;-55
2022/01/28 10:24:14;;;;;;;2.10;1.83;;;;;;;1.96;100.00;98268.97;5018422;28;20204;-57
2022/01/28 10:26:45;;;;;;;2.43;2.23;;;;;;;2.00;100.00;98270.44;5003536;28;20589;-55
2022/01/28 10:29:15;;;;;;;2.40;2.23;;;;;;;2.05;100.00;98275.38;5018203;28;20204;-56
2022/01/28 10:31:50;;;;;;;4.03;2.30;;;;;;;2.12;100.00;98270.56;5011222;28;20314;-58
2022/01/28 10:34:20;;;;;;;6.67;2.40;;;;;;;2.31;100.00;98264.94;5013729;28;20754;-55
2022/01/28 10:36:49;;;;;;;4.77;2.13;;;;;;;2.31;100.00;98262.31;5003665;28;20703;-58
2022/01/28 10:39:21;;;;;;;4.37;2.67;;;;;;;2.22;100.00;98257.69;4999688;28;20209;-58
2022/01/28 10:41:55;;;;;;;2.60;2.03;;;;;;;2.30;100.00;98253.63;5008466;28;20199;-56
2022/01/28 10:44:24;;;;;;;5.60;2.60;;;;;;;2.45;100.00;98250.88;5015013;28;20669;-56
2022/01/28 10:46:55;;;;;;;4.00;2.17;;;;;;;2.30;100.00;98258.03;5013109;28;20719;-57
2022/01/28 10:49:29;;;;;;;4.83;1.87;;;;;;;2.36;100.00;98262.84;5014245;28;20208;-55
2022/01/28 10:52:04;;;;;;;1.80;1.70;;;;;;;2.25;100.00;98258.31;5007098;28;20684;-52
2022/01/28 10:54:35;;;;;;;4.73;2.40;;;;;;;2.35;100.00;98261.16;5000779;28;20205;-54
2022/01/28 10:57:05;;;;;;;2.40;2.20;;;;;;;2.35;100.00;98260.31;5010560;28;20224;-57
2022/01/28 10:59:35;;;;;;;1.73;1.63;;;;;;;2.41;100.00;98258.13;5015848;28;20219;-58
2022/01/28 11:02:03;;;;;;;4.07;1.80;;;;;;;2.41;100.00;98249.41;5005457;28;20200;-56
2022/01/28 11:04:33;;;;;;;5.40;2.13;;;;;;;2.42;100.00;98254.56;5008282;28;20604;-55
2022/01/28 11:07:03;;;;;;;4.03;2.10;;;;;;;2.43;100.00;98252.75;5010069;28;20232;-56
2022/01/28 11:09:31;;;;;;;2.00;1.63;;;;;;;2.55;100.00;98257.16;5012305;28;20208;-59
2022/01/28 11:12:01;;;;;;;1.70;1.60;;;;;;;2.52;100.00;98252.16;5006779;28;20231;-61
2022/01/28 11:14:29;;;;;;;3.07;2.10;;;;;;;2.49;100.00;98260.22;4999111;28;20204;-60
2022/01/28 11:16:58;;;;;;;1.80;1.70;;;;;;;2.52;100.00;98259.16;5007753;28;20559;-57
2022/01/28 11:19:29;;;;;;;3.13;2.10;;;;;;;2.66;100.00;98276.50;5007163;28;21534;-57
2022/01/28 11:22:11;;;;;;;2.87;1.90;;;;;;;2.55;100.00;98267.63;5016428;28;20580;-60
2022/01/28 11:24:50;;;;;;;2.40;1.80;;;;;;;2.52;100.00;98278.31;5009178;28;20726;-60
2022/01/28 11:27:26;;;;;;;3.00;2.73;;;;;;;2.60;100.00;98270.75;5013514;28;20307;-61
2022/01/28 11:30:16;;;;;;;1.70;1.50;;;;;;;2.60;100.00;98286.47;5016540;28;20300;-59
2022/01/28 11:33:00;;;;;;;5.33;2.03;;;;;;;2.38;100.00;98307.19;5016563;28;20231;-59
2022/01/28 11:35:34;;;;;;;3.33;2.17;;;;;;;1.70;100.00;98297.66;5014330;28;20238;-59
2022/01/28 11:38:04;;;;;;;3.33;2.43;;;;;;;1.66;100.00;98290.13;5006842;28;20515;-61
2022/01/28 11:40:51;;;;;;;2.60;2.33;;;;;;;1.71;100.00;98296.75;5017594;28;20209;-61
2022/01/28 11:43:23;;;;;;;4.53;2.50;;;;;;;1.77;100.00;98294.66;5008105;28;20200;-57
2022/01/28 11:46:06;;;;;;;3.90;2.33;;;;;;;1.77;100.00;98300.72;5017776;28;20218;-59
2022/01/28 11:49:17;;;;;;;3.17;2.83;;;;;;;1.94;100.00;98297.00;5007865;28;20247;-59
2022/01/28 11:51:45;;;;;;;3.30;2.43;;;;;;;2.16;100.00;98301.63;5011734;28;20231;-61
2022/01/28 11:54:15;;;;;;;4.93;2.77;;;;;;;2.06;100.00;98308.41;5010985;28;20232;-57
2022/01/28 11:57:25;;;;;;;3.50;3.20;;;;;;;1.99;100.00;98301.94;5004898;28;20212;-61
2022/01/28 12:00:21;;;;;;;3.73;2.07;;;;;;;1.93;100.00;98304.94;5004060;28;20216;-62
2022/01/28 12:02:50;;;;;;;2.53;2.00;;;;;;;2.08;100.00;98308.28;5016429;28;20200;-58
2022/01/28 12:05:26;;;;;;;3.73;2.37;;;;;;;1.97;100.00;98309.84;5014588;28;20208;-60
2022/01/28 12:07:55;;;;;;;2.93;2.10;;;;;;;1.99;100.00;98313.19;5005335;28;20541;-58
2022/01/28 12:10:23;;;;;;;3.73;2.50;;;;;;;1.87;100.00;98314.84;5019738;28;20211;-60
2022/01/28 12:13:00;;;;;;;5.23;2.60;;;;;;;1.79;100.00;98305.84;5020141;28;20312;-58
2022/01/28 12:15:31;;;;;;;4.33;2.57;;;;;;;1.91;100.00;98310.25;5019874;28;20214;-60
2022/01/28 12:18:07;;;;;;;2.47;2.23;;;;;;;1.93;100.00;98313.63;5020647;28;20235;-57
2022/01/28 12:20:47;;;;;;;2.87;2.20;;;;;;;1.96;100.00;98313.41;5009283;28;20787;-56
2022/01/28 12:23:26;;;;;;;5.00;2.20;;;;;;;1.91;100.00;98314.66;5008528;28;20413;-57
2022/01/28 12:25:59;;;;;;;4.90;2.60;;;;;;;1.73;100.00;98314.94;5018087;28;20208;-59
2022/01/28 12:28:43;;;;;;;3.97;2.83;;;;;;;2.01;100.00;98313.94;5008755;28;20224;-57
2022/01/28 12:31:15;;;;;;;3.33;2.30;;;;;;;2.01;100.00;98313.94;5019447;28;20216;-58
2022/01/28 12:33:45;;;;;;;2.50;1.77;;;;;;;1.88;100.00;98310.47;5011411;28;20496;-58
2022/01/28 12:36:15;;;;;;;2.43;1.90;;;;;;;2.13;100.00;98321.94;5017095;28;20214;-57
2022/01/28 12:38:56;;;;;;;2.97;2.07;;;;;;;2.35;100.00;98318.69;5019310;28;20238;-57
2022/01/28 12:41:25;;;;;;;6.27;2.00;;;;;;;2.17;100.00;98315.53;5012958;28;20291;-55